Thornton, West Virginia
Current Conditions -  °F | °C
As of 8:53 PM on Wednesday 22 Oct 2014 (Local Time) from KCKB Reporting Station
Overcast Overcast  
Wind Chill: 45°   Ceiling: 2100
Heat Index: 48°   Visibility: 10mi
Dew Point: 42°   Wind: 6mph
Humidity: 80%   Direction: 330°NNW
Pressure: 30.18"   Gusts: NA
Location:  39.35°N, 79.94°W
Report Text: KCKB 230053Z 33005KT 10SM OVC021 09/06 A3018 RMK AO2 SLP216 T00890056
Loading
Personal Weather Stations






























Interactive Weather Map
Tropical Storm Tracking
New forecast layout! Learn more

10-Day Weather Forecast

Advertisements
Track Severe Weather on mobile